Time;durP1;ratioP1;P1;durP2;ratioP2;P2;SDS_P1;SDS_P2;PMS_P1;PMS_P2;Temp;Humidity;BMP_temperature;BMP_pressure;BME280_temperature;BME280_humidity;BME280_pressure;Samples;Min_cycle;Max_cycle;Signal;HPM_P1;HPM_P2
2022/01/14 00:00:59;;;;;;;0.20;0.20;;;;;;;;;;5139405;27;20269;-74
2022/01/14 00:03:25;;;;;;;0.10;0.10;;;;;;;;;;5131036;27;20193;-73
2022/01/14 00:05:51;;;;;;;0.30;0.30;;;;;;;;;;5143514;27;20232;-74
2022/01/14 00:08:19;;;;;;;0.10;0.10;;;;;;;;;;5139022;27;20217;-74
2022/01/14 00:10:49;;;;;;;0.67;0.67;;;;;;;;;;5125584;28;20254;-74
2022/01/14 00:13:38;;;;;;;0.20;0.20;;;;;;;;;;5136410;27;20261;-74
2022/01/14 00:16:02;;;;;;;0.40;0.40;;;;;;;;;;5133109;27;20455;-74
2022/01/14 00:18:28;;;;;;;0.20;0.20;;;;;;;;;;5135465;27;20220;-74
2022/01/14 00:20:54;;;;;;;0.20;0.20;;;;;;;;;;5131791;27;20201;-74
2022/01/14 00:23:27;;;;;;;0.13;0.13;;;;;;;;;;5126715;27;20204;-74
2022/01/14 00:31:44;;;;;;;0.17;0.17;;;;;;;;;;5130000;27;20256;-75
2022/01/14 00:34:11;;;;;;;0.10;0.10;;;;;;;;;;5138920;27;20349;-74
2022/01/14 00:36:37;;;;;;;0.10;0.10;;;;;;;;;;5138566;27;20531;-74
2022/01/14 00:39:03;;;;;;;0.20;0.20;;;;;;;;;;5131816;27;20235;-74
2022/01/14 00:41:31;;;;;;;4.27;4.13;;;;;;;;;;5135121;27;20221;-74
2022/01/14 00:44:01;;;;;;;0.13;0.13;;;;;;;;;;5129573;27;20241;-74
2022/01/14 00:46:27;;;;;;;0.30;0.30;;;;;;;;;;5135930;27;20181;-74
2022/01/14 00:48:54;;;;;;;0.20;0.20;;;;;;;;;;5132560;27;20201;-74
2022/01/14 00:51:20;;;;;;;0.20;0.20;;;;;;;;;;5144631;27;20200;-73
2022/01/14 00:53:46;;;;;;;0.20;0.20;;;;;;;;;;5132959;27;20396;-74
2022/01/14 00:56:25;;;;;;;0.10;0.10;;;;;;;;;;5140821;27;20197;-74
2022/01/14 01:01:37;;;;;;;0.20;0.20;;;;;;;;;;5124623;27;20260;-74
2022/01/14 01:04:03;;;;;;;0.17;0.17;;;;;;;;;;5124065;28;20395;-75
2022/01/14 01:06:30;;;;;;;0.10;0.10;;;;;;;;;;5129290;27;20241;-75
2022/01/14 01:08:57;;;;;;;0.20;0.20;;;;;;;;;;5128535;27;20279;-73
2022/01/14 01:11:27;;;;;;;0.20;0.20;;;;;;;;;;5142907;27;20197;-74
2022/01/14 01:14:04;;;;;;;0.20;0.20;;;;;;;;;;5137268;27;20230;-74
2022/01/14 01:16:30;;;;;;;0.10;0.10;;;;;;;;;;5132416;27;20264;-74
2022/01/14 01:18:56;;;;;;;0.20;0.20;;;;;;;;;;5144365;27;20560;-74
2022/01/14 01:21:22;;;;;;;0.20;0.20;;;;;;;;;;5130148;27;20239;-74
2022/01/14 01:23:49;;;;;;;0.13;0.13;;;;;;;;;;5134560;27;20201;-74
2022/01/14 01:26:21;;;;;;;0.17;0.17;;;;;;;;;;5140312;27;20389;-74
2022/01/14 01:28:59;;;;;;;0.20;0.20;;;;;;;;;;5134075;27;20261;-74
2022/01/14 01:31:37;;;;;;;0.10;0.10;;;;;;;;;;5124896;27;20440;-74
2022/01/14 01:34:03;;;;;;;1.37;0.63;;;;;;;;;;5123717;28;20238;-74
2022/01/14 01:36:30;;;;;;;0.10;0.10;;;;;;;;;;5132388;27;20197;-75
2022/01/14 01:38:56;;;;;;;0.20;0.20;;;;;;;;;;5138325;27;20213;-74
2022/01/14 01:41:22;;;;;;;0.13;0.13;;;;;;;;;;5125407;27;20553;-74
2022/01/14 01:43:51;;;;;;;0.10;0.10;;;;;;;;;;5123760;28;20234;-75
2022/01/14 01:46:19;;;;;;;0.10;0.10;;;;;;;;;;5128724;27;20203;-74
2022/01/14 01:48:47;;;;;;;0.17;0.17;;;;;;;;;;5135182;27;20499;-75
2022/01/14 01:51:13;;;;;;;0.83;0.83;;;;;;;;;;5139938;27;20242;-73
2022/01/14 01:53:39;;;;;;;0.20;0.20;;;;;;;;;;5137823;27;20244;-73
2022/01/14 01:56:06;;;;;;;0.20;0.20;;;;;;;;;;5141451;27;20304;-74
2022/01/14 01:58:32;;;;;;;0.97;0.97;;;;;;;;;;5135354;28;20196;-74
2022/01/14 02:00:59;;;;;;;0.13;0.13;;;;;;;;;;5138749;27;20426;-74
2022/01/14 02:03:25;;;;;;;0.10;0.10;;;;;;;;;;5124159;28;20268;-77
2022/01/14 02:05:52;;;;;;;0.20;0.20;;;;;;;;;;5132138;28;20245;-74
2022/01/14 02:08:18;;;;;;;0.50;0.50;;;;;;;;;;5127797;27;20270;-74
2022/01/14 02:10:45;;;;;;;0.30;0.30;;;;;;;;;;5123632;28;20504;-74
2022/01/14 02:13:11;;;;;;;0.10;0.10;;;;;;;;;;5134587;28;20262;-75
2022/01/14 02:15:45;;;;;;;0.10;0.10;;;;;;;;;;5130997;27;20192;-75
2022/01/14 02:24:07;;;;;;;0.10;0.10;;;;;;;;;;5130119;28;20511;-74
2022/01/14 02:26:34;;;;;;;0.30;0.30;;;;;;;;;;5139914;27;20230;-74
2022/01/14 02:29:00;;;;;;;0.10;0.10;;;;;;;;;;5128646;27;20205;-73
2022/01/14 02:31:26;;;;;;;0.20;0.20;;;;;;;;;;5124238;28;20205;-73
2022/01/14 02:33:52;;;;;;;0.10;0.10;;;;;;;;;;5135512;27;20198;-75
2022/01/14 02:36:20;;;;;;;0.10;0.10;;;;;;;;;;5140189;27;20200;-74
2022/01/14 02:38:46;;;;;;;0.10;0.10;;;;;;;;;;5136553;27;20216;-73
2022/01/14 02:41:12;;;;;;;0.10;0.10;;;;;;;;;;5139804;27;20283;-72
2022/01/14 02:43:38;;;;;;;0.20;0.20;;;;;;;;;;5143375;27;20193;-74
2022/01/14 02:46:06;;;;;;;0.10;0.10;;;;;;;;;;5134757;27;20384;-74
2022/01/14 02:48:32;;;;;;;0.10;0.10;;;;;;;;;;5132660;28;20244;-74
2022/01/14 02:51:01;;;;;;;0.20;0.20;;;;;;;;;;5134055;28;20424;-73
2022/01/14 02:53:41;;;;;;;0.20;0.20;;;;;;;;;;5137808;27;20209;-74
2022/01/14 02:56:08;;;;;;;0.10;0.10;;;;;;;;;;5147452;27;20226;-73
2022/01/14 02:58:35;;;;;;;0.50;0.50;;;;;;;;;;5143204;27;20196;-74
2022/01/14 03:01:05;;;;;;;0.30;0.30;;;;;;;;;;5133998;27;20221;-74
2022/01/14 03:03:32;;;;;;;0.13;0.13;;;;;;;;;;5142826;27;20218;-74
2022/01/14 03:05:58;;;;;;;0.10;0.10;;;;;;;;;;5129748;27;20240;-74
2022/01/14 03:08:25;;;;;;;0.10;0.10;;;;;;;;;;5139087;27;20273;-74
2022/01/14 03:10:53;;;;;;;0.10;0.10;;;;;;;;;;5134835;27;20198;-74
2022/01/14 03:13:20;;;;;;;0.10;0.10;;;;;;;;;;5147069;27;20204;-74
2022/01/14 03:15:49;;;;;;;0.10;0.10;;;;;;;;;;5141442;27;20205;-73
2022/01/14 03:18:21;;;;;;;0.20;0.20;;;;;;;;;;5135312;27;20217;-74
2022/01/14 03:20:50;;;;;;;0.20;0.20;;;;;;;;;;5141912;27;20212;-74
2022/01/14 03:23:18;;;;;;;0.10;0.10;;;;;;;;;;5131795;27;20202;-74
2022/01/14 03:25:51;;;;;;;0.20;0.20;;;;;;;;;;5143522;27;20261;-73
2022/01/14 03:28:22;;;;;;;0.10;0.10;;;;;;;;;;5145580;27;20237;-74
2022/01/14 03:30:49;;;;;;;0.67;0.67;;;;;;;;;;5146887;27;20356;-74
2022/01/14 03:33:16;;;;;;;0.20;0.20;;;;;;;;;;5146728;27;20496;-73
2022/01/14 03:35:42;;;;;;;0.10;0.10;;;;;;;;;;5146339;27;20204;-74
2022/01/14 03:38:08;;;;;;;0.10;0.10;;;;;;;;;;5146562;27;20205;-73
2022/01/14 03:40:34;;;;;;;0.10;0.10;;;;;;;;;;5146580;27;20277;-74
2022/01/14 03:43:01;;;;;;;0.10;0.10;;;;;;;;;;5146571;27;20205;-74
2022/01/14 03:45:28;;;;;;;0.50;0.50;;;;;;;;;;5146486;27;20231;-74
2022/01/14 03:47:54;;;;;;;0.13;0.13;;;;;;;;;;5146650;27;20201;-74
2022/01/14 03:50:21;;;;;;;0.93;0.93;;;;;;;;;;5146203;27;20205;-74
2022/01/14 03:52:47;;;;;;;0.20;0.20;;;;;;;;;;5146383;27;20215;-74
2022/01/14 03:55:13;;;;;;;0.10;0.10;;;;;;;;;;5146360;27;20581;-74
2022/01/14 03:57:39;;;;;;;0.20;0.20;;;;;;;;;;5145894;27;20203;-74
2022/01/14 04:00:06;;;;;;;0.13;0.13;;;;;;;;;;5145803;27;20221;-73
2022/01/14 04:02:34;;;;;;;0.10;0.10;;;;;;;;;;5146426;27;20201;-74
2022/01/14 04:05:00;;;;;;;0.10;0.10;;;;;;;;;;5126927;27;20545;-75
2022/01/14 04:07:26;;;;;;;0.20;0.20;;;;;;;;;;5125436;28;20505;-73
2022/01/14 04:09:52;;;;;;;0.77;0.77;;;;;;;;;;5124982;27;20221;-74
2022/01/14 04:12:31;;;;;;;0.10;0.10;;;;;;;;;;5125283;28;20258;-74
2022/01/14 04:17:43;;;;;;;0.20;0.20;;;;;;;;;;5125066;28;20224;-74
2022/01/14 04:20:09;;;;;;;0.10;0.10;;;;;;;;;;5124760;28;20228;-74
2022/01/14 04:22:36;;;;;;;0.17;0.17;;;;;;;;;;5125213;28;20204;-74
2022/01/14 04:25:02;;;;;;;1.00;1.00;;;;;;;;;;5141163;27;20499;-74
2022/01/14 04:27:28;;;;;;;0.10;0.10;;;;;;;;;;5145610;27;20249;-74
2022/01/14 04:29:54;;;;;;;0.43;0.43;;;;;;;;;;5145585;27;20449;-74
2022/01/14 04:32:21;;;;;;;0.10;0.10;;;;;;;;;;5145216;27;20208;-74
2022/01/14 04:34:48;;;;;;;0.10;0.10;;;;;;;;;;5145593;27;20240;-75
2022/01/14 04:37:14;;;;;;;0.20;0.20;;;;;;;;;;5145101;27;20204;-74
2022/01/14 04:39:40;;;;;;;0.10;0.10;;;;;;;;;;5140823;27;20488;-74
2022/01/14 04:42:07;;;;;;;0.10;0.10;;;;;;;;;;5144150;27;20200;-75
2022/01/14 04:44:33;;;;;;;0.43;0.43;;;;;;;;;;5145240;27;20201;-74
2022/01/14 04:47:15;;;;;;;0.20;0.20;;;;;;;;;;5145335;27;20572;-74
2022/01/14 04:49:41;;;;;;;0.10;0.10;;;;;;;;;;5145465;27;20194;-74
2022/01/14 04:52:08;;;;;;;2.00;1.90;;;;;;;;;;5145205;27;20418;-74
2022/01/14 04:54:35;;;;;;;0.20;0.20;;;;;;;;;;5145165;27;20204;-74
2022/01/14 04:57:03;;;;;;;1.13;1.13;;;;;;;;;;5144561;27;20279;-75
2022/01/14 04:59:29;;;;;;;0.20;0.20;;;;;;;;;;5144576;27;20212;-74
2022/01/14 05:01:57;;;;;;;0.20;0.20;;;;;;;;;;5144252;27;20203;-73
2022/01/14 05:04:23;;;;;;;0.10;0.10;;;;;;;;;;5144560;27;20376;-74
2022/01/14 05:06:56;;;;;;;0.70;0.70;;;;;;;;;;5144474;27;20204;-74
2022/01/14 05:09:30;;;;;;;0.20;0.20;;;;;;;;;;5144435;27;20254;-74
2022/01/14 05:12:04;;;;;;;0.10;0.10;;;;;;;;;;5144859;27;20266;-75
2022/01/14 05:14:30;;;;;;;0.10;0.10;;;;;;;;;;5144020;27;20199;-73
2022/01/14 05:16:57;;;;;;;0.17;0.17;;;;;;;;;;5144620;27;20204;-74
2022/01/14 05:19:23;;;;;;;0.20;0.20;;;;;;;;;;5144417;27;20268;-75
2022/01/14 05:21:52;;;;;;;0.20;0.20;;;;;;;;;;5144222;27;20269;-74
2022/01/14 05:24:19;;;;;;;0.27;0.27;;;;;;;;;;5144201;27;20210;-75
2022/01/14 05:26:46;;;;;;;0.40;0.40;;;;;;;;;;5144547;27;20201;-74
2022/01/14 05:29:13;;;;;;;0.40;0.40;;;;;;;;;;5144394;27;20560;-74
2022/01/14 05:31:46;;;;;;;0.10;0.10;;;;;;;;;;5144543;27;20238;-75
2022/01/14 05:34:12;;;;;;;0.27;0.27;;;;;;;;;;5144163;27;20233;-75
2022/01/14 05:36:38;;;;;;;0.10;0.10;;;;;;;;;;5143969;27;20203;-74
2022/01/14 05:39:05;;;;;;;0.20;0.20;;;;;;;;;;5144200;27;20205;-74
2022/01/14 05:41:32;;;;;;;0.10;0.10;;;;;;;;;;5144346;27;20265;-75
2022/01/14 05:43:59;;;;;;;0.20;0.20;;;;;;;;;;5144400;27;20321;-74
2022/01/14 05:46:25;;;;;;;0.20;0.20;;;;;;;;;;5143978;27;20230;-74
2022/01/14 05:48:52;;;;;;;0.10;0.10;;;;;;;;;;5144173;27;20239;-74
2022/01/14 05:51:19;;;;;;;0.20;0.20;;;;;;;;;;5144372;27;20204;-74
2022/01/14 05:53:45;;;;;;;0.20;0.20;;;;;;;;;;5143933;27;20208;-74
2022/01/14 05:56:11;;;;;;;0.17;0.17;;;;;;;;;;5143975;27;20207;-74
2022/01/14 05:58:37;;;;;;;0.17;0.17;;;;;;;;;;5142800;28;20203;-74
2022/01/14 06:01:05;;;;;;;0.20;0.20;;;;;;;;;;5144120;27;20266;-74
2022/01/14 06:03:31;;;;;;;0.10;0.10;;;;;;;;;;5143631;27;20202;-75
2022/01/14 06:05:57;;;;;;;0.30;0.30;;;;;;;;;;5144064;27;20204;-74
2022/01/14 06:08:24;;;;;;;0.20;0.20;;;;;;;;;;5144044;27;20265;-74
2022/01/14 06:10:50;;;;;;;0.10;0.10;;;;;;;;;;5143853;27;20279;-74
2022/01/14 06:13:16;;;;;;;0.10;0.10;;;;;;;;;;5143669;27;20210;-74
2022/01/14 06:15:42;;;;;;;0.10;0.10;;;;;;;;;;5144007;27;20207;-74
2022/01/14 06:18:10;;;;;;;0.10;0.10;;;;;;;;;;5143669;27;20573;-75
2022/01/14 06:20:36;;;;;;;0.10;0.10;;;;;;;;;;5143450;27;20228;-73
2022/01/14 06:23:02;;;;;;;0.20;0.20;;;;;;;;;;5143809;27;20248;-73
2022/01/14 06:25:31;;;;;;;0.20;0.20;;;;;;;;;;5143730;27;20378;-75
2022/01/14 06:27:57;;;;;;;0.40;0.40;;;;;;;;;;5146538;27;20492;-73
2022/01/14 06:30:23;;;;;;;0.10;0.10;;;;;;;;;;5147499;27;20221;-74
2022/01/14 06:32:52;;;;;;;0.20;0.20;;;;;;;;;;5147733;27;20223;-74
2022/01/14 06:35:19;;;;;;;0.10;0.10;;;;;;;;;;5147773;27;20203;-74
2022/01/14 06:37:45;;;;;;;0.17;0.17;;;;;;;;;;5147756;27;20209;-74
2022/01/14 06:40:12;;;;;;;0.10;0.10;;;;;;;;;;5146553;27;20255;-74
2022/01/14 06:42:38;;;;;;;0.30;0.30;;;;;;;;;;5126608;27;20262;-73
2022/01/14 06:45:05;;;;;;;0.20;0.20;;;;;;;;;;5127030;28;20300;-75
2022/01/14 06:47:31;;;;;;;0.10;0.10;;;;;;;;;;5127101;28;20371;-74
2022/01/14 06:49:57;;;;;;;0.20;0.20;;;;;;;;;;5126747;28;20209;-73
2022/01/14 06:52:25;;;;;;;0.20;0.20;;;;;;;;;;5126615;28;20205;-73
2022/01/14 06:54:52;;;;;;;0.20;0.20;;;;;;;;;;5146730;27;20507;-74
2022/01/14 06:57:19;;;;;;;0.10;0.10;;;;;;;;;;5147339;27;20201;-73
2022/01/14 06:59:45;;;;;;;0.13;0.13;;;;;;;;;;5145921;27;20325;-74
2022/01/14 07:02:11;;;;;;;0.30;0.30;;;;;;;;;;5129395;27;20318;-74
2022/01/14 07:04:37;;;;;;;0.20;0.20;;;;;;;;;;5141568;27;20201;-74
2022/01/14 07:07:04;;;;;;;0.20;0.20;;;;;;;;;;5147240;27;20499;-73
2022/01/14 07:09:34;;;;;;;0.10;0.10;;;;;;;;;;5147097;27;20236;-74
2022/01/14 07:12:02;;;;;;;0.20;0.20;;;;;;;;;;5130757;27;20525;-75
2022/01/14 07:14:29;;;;;;;0.10;0.10;;;;;;;;;;5140817;27;20205;-74
2022/01/14 07:16:55;;;;;;;0.20;0.20;;;;;;;;;;5147007;27;20534;-73
2022/01/14 07:19:22;;;;;;;0.10;0.10;;;;;;;;;;5147010;27;20192;-72
2022/01/14 07:21:49;;;;;;;0.10;0.10;;;;;;;;;;5140889;27;20280;-72
2022/01/14 07:24:15;;;;;;;0.10;0.10;;;;;;;;;;5129001;27;20386;-72
2022/01/14 07:26:45;;;;;;;0.10;0.10;;;;;;;;;;5145887;27;20205;-74
2022/01/14 07:29:11;;;;;;;0.13;0.13;;;;;;;;;;5142936;27;20201;-74
2022/01/14 07:31:38;;;;;;;0.10;0.10;;;;;;;;;;5145719;27;20257;-74
2022/01/14 07:34:04;;;;;;;0.10;0.10;;;;;;;;;;5139067;27;20204;-74
2022/01/14 07:36:30;;;;;;;0.20;0.20;;;;;;;;;;5143563;27;20201;-75
2022/01/14 07:38:56;;;;;;;0.13;0.13;;;;;;;;;;5139580;27;20201;-75
2022/01/14 07:41:22;;;;;;;0.20;0.20;;;;;;;;;;5143082;27;20257;-76
2022/01/14 07:43:50;;;;;;;0.10;0.10;;;;;;;;;;5130708;27;20209;-75
2022/01/14 07:46:16;;;;;;;0.10;0.10;;;;;;;;;;5125919;28;20206;-76
2022/01/14 07:48:43;;;;;;;0.20;0.20;;;;;;;;;;5125857;28;20433;-76
2022/01/14 07:51:09;;;;;;;0.20;0.20;;;;;;;;;;5125590;28;20249;-76
2022/01/14 07:53:36;;;;;;;0.20;0.20;;;;;;;;;;5125217;28;20198;-76
2022/01/14 07:56:05;;;;;;;0.10;0.10;;;;;;;;;;5125695;28;20205;-75
2022/01/14 07:58:31;;;;;;;0.17;0.17;;;;;;;;;;5125590;28;20259;-75
2022/01/14 08:00:58;;;;;;;0.20;0.20;;;;;;;;;;5125298;28;20217;-78
2022/01/14 08:03:25;;;;;;;0.20;0.20;;;;;;;;;;5136231;27;20230;-78
2022/01/14 08:05:53;;;;;;;0.17;0.17;;;;;;;;;;5136591;27;20201;-79
2022/01/14 08:08:20;;;;;;;0.20;0.20;;;;;;;;;;5133568;27;20427;-79
2022/01/14 08:10:46;;;;;;;0.43;0.43;;;;;;;;;;5134155;27;20505;-75
2022/01/14 08:13:12;;;;;;;0.20;0.20;;;;;;;;;;5136002;27;20257;-74
2022/01/14 08:15:38;;;;;;;0.10;0.10;;;;;;;;;;5124937;27;20205;-75
2022/01/14 08:18:07;;;;;;;0.23;0.23;;;;;;;;;;5124613;27;20266;-77
2022/01/14 08:20:33;;;;;;;0.10;0.10;;;;;;;;;;5127720;27;20400;-77
2022/01/14 08:22:59;;;;;;;0.13;0.13;;;;;;;;;;5125038;27;20209;-77
2022/01/14 08:25:26;;;;;;;0.17;0.17;;;;;;;;;;5133046;27;20205;-77
2022/01/14 08:27:52;;;;;;;0.20;0.20;;;;;;;;;;5125181;28;20208;-79
2022/01/14 08:30:18;;;;;;;0.17;0.17;;;;;;;;;;5124997;28;20205;-79
2022/01/14 08:32:45;;;;;;;0.20;0.20;;;;;;;;;;5129302;27;20212;-77
2022/01/14 08:35:13;;;;;;;0.10;0.10;;;;;;;;;;5139106;27;20206;-75
2022/01/14 08:37:39;;;;;;;0.10;0.10;;;;;;;;;;5139942;27;20205;-77
2022/01/14 08:40:06;;;;;;;0.23;0.23;;;;;;;;;;5127851;27;20468;-76
2022/01/14 08:42:33;;;;;;;0.20;0.20;;;;;;;;;;5128395;27;20256;-76
2022/01/14 08:44:59;;;;;;;0.17;0.17;;;;;;;;;;5141464;27;20207;-77
2022/01/14 08:47:26;;;;;;;0.10;0.10;;;;;;;;;;5135794;27;20201;-74
2022/01/14 08:49:52;;;;;;;0.10;0.10;;;;;;;;;;5131737;27;20198;-73
2022/01/14 08:52:20;;;;;;;0.10;0.10;;;;;;;;;;5127140;27;20198;-74
2022/01/14 08:54:46;;;;;;;0.10;0.10;;;;;;;;;;5129525;27;20253;-75
2022/01/14 08:57:13;;;;;;;0.17;0.17;;;;;;;;;;5139902;27;20204;-76
2022/01/14 08:59:39;;;;;;;0.13;0.13;;;;;;;;;;5139002;27;20234;-74
2022/01/14 09:02:05;;;;;;;0.10;0.10;;;;;;;;;;5140554;27;20219;-75
2022/01/14 09:04:32;;;;;;;0.10;0.10;;;;;;;;;;5128796;27;20201;-74
2022/01/14 09:06:58;;;;;;;0.10;0.10;;;;;;;;;;5131655;27;20202;-76
2022/01/14 09:09:26;;;;;;;0.10;0.10;;;;;;;;;;5138364;27;20225;-76
2022/01/14 09:11:52;;;;;;;0.10;0.10;;;;;;;;;;5132177;27;20516;-76
2022/01/14 09:14:19;;;;;;;0.10;0.10;;;;;;;;;;5138616;27;20204;-75
2022/01/14 09:16:45;;;;;;;2.33;1.53;;;;;;;;;;5126308;27;20405;-74
2022/01/14 09:19:11;;;;;;;0.10;0.10;;;;;;;;;;5123812;28;20537;-74
2022/01/14 09:21:38;;;;;;;0.10;0.10;;;;;;;;;;5123989;28;20229;-74
2022/01/14 09:24:04;;;;;;;0.10;0.10;;;;;;;;;;5136603;27;20222;-74
2022/01/14 09:26:32;;;;;;;0.10;0.10;;;;;;;;;;5127556;27;20391;-75
2022/01/14 09:28:58;;;;;;;0.10;0.10;;;;;;;;;;5126944;27;20201;-74
2022/01/14 09:31:24;;;;;;;0.63;0.63;;;;;;;;;;5123717;28;20239;-76
2022/01/14 09:33:51;;;;;;;0.10;0.10;;;;;;;;;;5127620;27;20204;-72
2022/01/14 09:36:17;;;;;;;0.20;0.20;;;;;;;;;;5130613;27;20433;-76
2022/01/14 09:38:43;;;;;;;0.10;0.10;;;;;;;;;;5123208;28;20251;-74
2022/01/14 09:41:09;;;;;;;0.10;0.10;;;;;;;;;;5128898;27;20228;-75
2022/01/14 09:43:39;;;;;;;1.03;1.03;;;;;;;;;;5131970;27;20205;-74
2022/01/14 09:46:06;;;;;;;0.10;0.10;;;;;;;;;;5136521;27;20212;-74
2022/01/14 09:48:32;;;;;;;0.10;0.10;;;;;;;;;;5140788;27;20407;-73
2022/01/14 09:50:59;;;;;;;0.10;0.10;;;;;;;;;;5144108;27;20249;-73
2022/01/14 09:53:25;;;;;;;0.10;0.10;;;;;;;;;;5128969;27;20209;-67
2022/01/14 09:55:52;;;;;;;0.10;0.10;;;;;;;;;;5125886;28;20254;-69
2022/01/14 09:58:18;;;;;;;0.20;0.20;;;;;;;;;;5123702;28;20204;-68
2022/01/14 10:00:46;;;;;;;0.10;0.10;;;;;;;;;;5123784;28;20495;-75
2022/01/14 10:03:19;;;;;;;0.10;0.10;;;;;;;;;;5127435;28;20240;-74
2022/01/14 10:05:51;;;;;;;0.10;0.10;;;;;;;;;;5129749;27;20205;-75
2022/01/14 10:08:22;;;;;;;0.10;0.10;;;;;;;;;;5145101;27;20255;-77
2022/01/14 10:10:50;;;;;;;0.70;0.70;;;;;;;;;;5148530;27;20436;-76
2022/01/14 10:13:18;;;;;;;0.10;0.10;;;;;;;;;;5130568;27;20376;-76
2022/01/14 10:15:47;;;;;;;0.20;0.20;;;;;;;;;;5127739;28;20205;-75
2022/01/14 10:18:15;;;;;;;0.20;0.20;;;;;;;;;;5127556;28;20449;-73
2022/01/14 10:20:41;;;;;;;0.20;0.20;;;;;;;;;;5127827;27;20311;-76
2022/01/14 10:23:08;;;;;;;0.10;0.10;;;;;;;;;;5127388;27;20221;-74
2022/01/14 10:25:35;;;;;;;0.10;0.10;;;;;;;;;;5127662;27;20493;-74
2022/01/14 10:28:01;;;;;;;0.20;0.20;;;;;;;;;;5128055;27;20205;-73
2022/01/14 10:30:29;;;;;;;0.10;0.10;;;;;;;;;;5143735;27;20445;-74
2022/01/14 10:32:57;;;;;;;0.20;0.20;;;;;;;;;;5140232;27;20201;-73
2022/01/14 10:35:24;;;;;;;0.20;0.20;;;;;;;;;;5127014;28;20231;-74
2022/01/14 10:37:51;;;;;;;0.10;0.10;;;;;;;;;;5127375;28;20229;-73
2022/01/14 10:40:18;;;;;;;0.20;0.20;;;;;;;;;;5127096;28;20194;-73
2022/01/14 10:42:45;;;;;;;0.20;0.20;;;;;;;;;;5130720;27;20316;-73
2022/01/14 10:45:22;;;;;;;0.20;0.20;;;;;;;;;;5126861;28;20213;-73
2022/01/14 10:47:51;;;;;;;1.83;1.27;;;;;;;;;;5126825;28;20193;-68
2022/01/14 10:50:18;;;;;;;0.20;0.20;;;;;;;;;;5127086;28;20249;-74
2022/01/14 10:52:49;;;;;;;0.10;0.10;;;;;;;;;;5127058;28;20240;-74
2022/01/14 10:55:27;;;;;;;0.33;0.33;;;;;;;;;;5127123;28;20194;-74
2022/01/14 10:57:53;;;;;;;1.60;1.60;;;;;;;;;;5127039;28;20200;-75
2022/01/14 11:00:20;;;;;;;0.10;0.10;;;;;;;;;;5126957;28;20205;-74
2022/01/14 11:02:48;;;;;;;0.10;0.10;;;;;;;;;;5134201;27;20217;-75
2022/01/14 11:05:15;;;;;;;0.30;0.30;;;;;;;;;;5147323;27;20204;-74
2022/01/14 11:07:43;;;;;;;0.20;0.20;;;;;;;;;;5147376;27;20208;-75
2022/01/14 11:10:17;;;;;;;0.30;0.30;;;;;;;;;;5147239;27;20224;-74
2022/01/14 11:12:44;;;;;;;0.17;0.17;;;;;;;;;;5146828;27;20241;-73
2022/01/14 11:15:11;;;;;;;0.10;0.10;;;;;;;;;;5147344;27;20355;-76
2022/01/14 11:17:38;;;;;;;0.10;0.10;;;;;;;;;;5147133;27;20216;-75
2022/01/14 11:20:05;;;;;;;0.10;0.10;;;;;;;;;;5147148;27;20227;-74
2022/01/14 11:25:17;;;;;;;0.20;0.20;;;;;;;;;;5142279;27;20207;-75
2022/01/14 11:27:47;;;;;;;0.10;0.10;;;;;;;;;;5128977;27;20205;-75
2022/01/14 11:30:14;;;;;;;0.20;0.20;;;;;;;;;;5126010;28;20227;-75
2022/01/14 11:32:53;;;;;;;1.10;0.47;;;;;;;;;;5126275;28;20202;-75
2022/01/14 11:35:20;;;;;;;0.23;0.23;;;;;;;;;;5126662;27;20213;-74
2022/01/14 11:37:46;;;;;;;1.07;1.07;;;;;;;;;;5125965;28;20201;-75
2022/01/14 11:40:15;;;;;;;0.10;0.10;;;;;;;;;;5126093;28;20293;-75
2022/01/14 11:42:43;;;;;;;0.10;0.10;;;;;;;;;;5125796;28;20296;-75
2022/01/14 11:45:10;;;;;;;0.10;0.10;;;;;;;;;;5137169;27;20437;-75
2022/01/14 11:48:02;;;;;;;0.10;0.10;;;;;;;;;;5127773;27;20201;-74
2022/01/14 11:50:46;;;;;;;0.20;0.20;;;;;;;;;;5125383;28;20198;-75
2022/01/14 11:53:31;;;;;;;0.10;0.10;;;;;;;;;;5128232;27;20242;-75
2022/01/14 11:55:57;;;;;;;0.10;0.10;;;;;;;;;;5125644;28;20201;-76
2022/01/14 11:58:25;;;;;;;0.20;0.20;;;;;;;;;;5125723;28;20213;-74
2022/01/14 12:00:51;;;;;;;0.10;0.10;;;;;;;;;;5125728;28;20467;-74
2022/01/14 12:03:28;;;;;;;0.17;0.17;;;;;;;;;;5129022;27;20504;-74
2022/01/14 12:05:55;;;;;;;0.10;0.10;;;;;;;;;;5127050;27;20208;-74
2022/01/14 12:08:22;;;;;;;0.10;0.10;;;;;;;;;;5136989;27;20292;-74
2022/01/14 12:10:53;;;;;;;0.10;0.10;;;;;;;;;;5130158;27;20574;-72
2022/01/14 12:13:37;;;;;;;0.10;0.10;;;;;;;;;;5130431;27;20251;-74
2022/01/14 12:16:05;;;;;;;0.10;0.10;;;;;;;;;;5131953;27;20205;-73
2022/01/14 12:18:50;;;;;;;0.10;0.10;;;;;;;;;;5138095;27;20216;-74
2022/01/14 12:21:17;;;;;;;0.10;0.10;;;;;;;;;;5141626;27;20274;-74
2022/01/14 12:23:44;;;;;;;0.10;0.10;;;;;;;;;;5135987;27;20218;-73
2022/01/14 12:26:13;;;;;;;0.20;0.20;;;;;;;;;;5132682;27;20259;-72
2022/01/14 12:28:41;;;;;;;0.20;0.20;;;;;;;;;;5128114;27;20544;-74
2022/01/14 12:31:08;;;;;;;0.10;0.10;;;;;;;;;;5131518;27;20210;-72
2022/01/14 12:33:41;;;;;;;0.20;0.20;;;;;;;;;;5125005;28;20366;-74
2022/01/14 12:36:11;;;;;;;0.10;0.10;;;;;;;;;;5124756;28;20197;-74
2022/01/14 12:38:39;;;;;;;0.10;0.10;;;;;;;;;;5124607;28;20202;-75
2022/01/14 12:41:05;;;;;;;0.13;0.13;;;;;;;;;;5128229;27;20275;-73
2022/01/14 12:43:31;;;;;;;0.10;0.10;;;;;;;;;;5145370;27;20227;-74
2022/01/14 12:46:13;;;;;;;0.10;0.10;;;;;;;;;;5145466;27;20514;-75
2022/01/14 12:48:46;;;;;;;0.10;0.10;;;;;;;;;;5126173;27;20532;-76
2022/01/14 12:51:14;;;;;;;0.20;0.20;;;;;;;;;;5124920;28;20366;-75
2022/01/14 12:53:57;;;;;;;0.10;0.10;;;;;;;;;;5124766;27;20204;-74
2022/01/14 12:56:24;;;;;;;0.10;0.10;;;;;;;;;;5124367;28;20502;-74
2022/01/14 12:58:51;;;;;;;0.10;0.10;;;;;;;;;;5124388;28;20276;-76
2022/01/14 13:01:19;;;;;;;0.10;0.10;;;;;;;;;;5124634;28;20202;-75
2022/01/14 13:03:46;;;;;;;0.20;0.20;;;;;;;;;;5124462;28;20232;-74
2022/01/14 13:06:12;;;;;;;0.10;0.10;;;;;;;;;;5124452;28;20205;-75
2022/01/14 13:08:38;;;;;;;0.10;0.10;;;;;;;;;;5124021;28;20221;-73
2022/01/14 13:11:05;;;;;;;0.10;0.10;;;;;;;;;;5124088;28;20205;-74
2022/01/14 13:13:31;;;;;;;0.10;0.10;;;;;;;;;;5124340;28;20391;-74
2022/01/14 13:16:01;;;;;;;0.10;0.10;;;;;;;;;;5123847;28;20211;-74
2022/01/14 13:18:36;;;;;;;0.10;0.10;;;;;;;;;;5124180;28;20251;-76
2022/01/14 13:21:02;;;;;;;0.20;0.20;;;;;;;;;;5124017;28;20527;-75
2022/01/14 13:23:30;;;;;;;0.20;0.20;;;;;;;;;;5123956;28;20245;-75
2022/01/14 13:26:00;;;;;;;0.13;0.13;;;;;;;;;;5123761;28;20205;-75
2022/01/14 13:28:26;;;;;;;0.10;0.10;;;;;;;;;;5123764;28;20202;-76
2022/01/14 13:30:52;;;;;;;0.10;0.10;;;;;;;;;;5124760;27;20205;-72
2022/01/14 13:33:20;;;;;;;0.20;0.20;;;;;;;;;;5126751;27;20269;-75
2022/01/14 13:35:48;;;;;;;0.20;0.20;;;;;;;;;;5126305;27;20205;-75
2022/01/14 13:38:16;;;;;;;0.10;0.10;;;;;;;;;;5138932;27;20258;-75
2022/01/14 13:40:44;;;;;;;0.30;0.30;;;;;;;;;;5144504;27;20204;-76
2022/01/14 13:43:12;;;;;;;0.10;0.10;;;;;;;;;;5143857;27;20228;-69
2022/01/14 13:45:41;;;;;;;0.20;0.20;;;;;;;;;;5143138;27;20204;-71
2022/01/14 13:48:09;;;;;;;0.10;0.10;;;;;;;;;;5143085;27;20211;-72
2022/01/14 13:50:37;;;;;;;0.20;0.20;;;;;;;;;;5137011;27;20268;-74
2022/01/14 13:53:05;;;;;;;0.13;0.13;;;;;;;;;;5123806;28;20301;-73
2022/01/14 13:55:33;;;;;;;0.10;0.10;;;;;;;;;;5123447;28;20201;-73
2022/01/14 13:58:06;;;;;;;0.10;0.10;;;;;;;;;;5123690;28;20412;-76
2022/01/14 14:00:33;;;;;;;0.10;0.10;;;;;;;;;;5126608;28;20226;-76
2022/01/14 14:02:59;;;;;;;0.10;0.10;;;;;;;;;;5124469;28;20227;-75
2022/01/14 14:05:39;;;;;;;0.20;0.20;;;;;;;;;;5126596;27;20206;-75
2022/01/14 14:08:09;;;;;;;0.10;0.10;;;;;;;;;;5126240;28;20201;-75
2022/01/14 14:11:45;;;;;;;0.50;0.50;;;;;;;;;;5127975;28;20197;-75
2022/01/14 14:15:37;;;;;;;0.67;0.40;;;;;;;;;;5138259;28;20403;-73
2022/01/14 14:16:28;;;;;;;0.10;0.10;;;;;;;;;;5143383;28;20276;-77
2022/01/14 14:18:55;;;;;;;0.10;0.10;;;;;;;;;;5143734;27;20549;-77
2022/01/14 14:21:21;;;;;;;0.10;0.10;;;;;;;;;;5143995;27;20209;-77
2022/01/14 14:23:55;;;;;;;0.10;0.10;;;;;;;;;;5143058;27;20224;-75
2022/01/14 14:26:29;;;;;;;0.10;0.10;;;;;;;;;;5144173;27;20190;-76
2022/01/14 14:28:55;;;;;;;0.10;0.10;;;;;;;;;;5143171;27;20197;-77
2022/01/14 14:31:27;;;;;;;0.13;0.13;;;;;;;;;;5140763;27;20238;-75
2022/01/14 14:33:53;;;;;;;0.10;0.10;;;;;;;;;;5134759;27;20225;-74
2022/01/14 14:36:21;;;;;;;0.10;0.10;;;;;;;;;;5127750;27;20243;-76
2022/01/14 14:38:48;;;;;;;0.10;0.10;;;;;;;;;;5123407;28;20202;-75
2022/01/14 14:41:15;;;;;;;0.10;0.10;;;;;;;;;;5123373;28;20345;-77
2022/01/14 14:43:42;;;;;;;0.10;0.10;;;;;;;;;;5123043;28;20303;-75
2022/01/14 14:46:10;;;;;;;0.10;0.10;;;;;;;;;;5131638;28;20202;-76
2022/01/14 14:48:36;;;;;;;0.10;0.10;;;;;;;;;;5139585;27;20289;-77
2022/01/14 14:51:03;;;;;;;0.10;0.10;;;;;;;;;;5141314;27;21042;-77
2022/01/14 14:53:29;;;;;;;0.13;0.13;;;;;;;;;;5144330;27;20197;-76
2022/01/14 14:55:55;;;;;;;0.20;0.20;;;;;;;;;;5146192;27;20242;-76
2022/01/14 14:58:23;;;;;;;0.10;0.10;;;;;;;;;;5146499;27;20250;-77
2022/01/14 15:00:49;;;;;;;0.10;0.10;;;;;;;;;;5147576;27;20204;-77
2022/01/14 15:03:15;;;;;;;0.20;0.20;;;;;;;;;;5147415;27;20225;-76
2022/01/14 15:05:41;;;;;;;0.10;0.10;;;;;;;;;;5148189;27;20205;-77
2022/01/14 15:08:08;;;;;;;0.10;0.10;;;;;;;;;;5143363;27;20217;-75